createdAt,value
2022-11-15T00:04:57.522Z,6.58
2022-11-15T00:09:58.677Z,6.55
2022-11-15T00:14:59.829Z,6.51
2022-11-15T00:20:00.945Z,6.45
2022-11-15T00:25:02.034Z,6.39
2022-11-15T00:30:03.322Z,6.36
2022-11-15T00:35:05.191Z,6.37
2022-11-15T00:40:07.551Z,6.43
2022-11-15T00:45:09.501Z,6.49
2022-11-15T00:50:14.834Z,6.55
2022-11-15T00:55:18.824Z,6.59
2022-11-15T01:00:20.043Z,6.63
2022-11-15T01:05:22.854Z,6.66
2022-11-15T01:10:25.998Z,6.63
2022-11-15T01:15:27.212Z,6.60
2022-11-15T01:20:28.589Z,6.60
2022-11-15T01:25:29.758Z,6.60
2022-11-15T01:30:30.933Z,6.60
2022-11-15T01:35:32.148Z,6.60
2022-11-15T01:40:33.145Z,6.60
2022-11-15T01:45:34.341Z,6.56
2022-11-15T01:50:35.416Z,6.53
2022-11-15T01:55:37.239Z,6.49
2022-11-15T02:00:38.702Z,6.45
2022-11-15T02:05:41.373Z,6.39
2022-11-15T02:10:42.548Z,6.33
2022-11-15T02:16:02.815Z,6.30
2022-11-15T02:21:30.926Z,6.32
2022-11-15T02:26:50.680Z,6.32
2022-11-15T02:32:20.948Z,6.22
2022-11-15T02:37:25.147Z,6.13
2022-11-15T02:42:49.176Z,6.10
2022-11-15T02:47:54.275Z,6.08
2022-11-15T02:52:56.129Z,6.06
2022-11-15T02:58:37.397Z,6.08
2022-11-15T03:03:41.475Z,6.08
2022-11-15T03:08:43.119Z,6.05
2022-11-15T03:13:44.171Z,6.02
2022-11-15T03:18:54.049Z,5.99
2022-11-15T03:23:58.789Z,5.94
2022-11-15T03:29:22.586Z,5.93
2022-11-15T03:34:47.555Z,5.92
2022-11-15T03:39:49.075Z,5.94
2022-11-15T03:45:02.718Z,5.97
2022-11-15T03:50:11.138Z,5.97
2022-11-15T03:55:16.946Z,6.00
2022-11-15T04:00:18.259Z,6.04
2022-11-15T04:05:19.735Z,6.00
2022-11-15T04:10:20.996Z,5.93
2022-11-15T04:15:24.045Z,5.91
2022-11-15T04:20:47.953Z,5.81
2022-11-15T04:25:52.188Z,5.75
2022-11-15T04:30:53.581Z,5.77
2022-11-15T04:36:13.239Z,5.78
2022-11-15T04:41:14.404Z,5.72
2022-11-15T04:46:15.503Z,5.70
2022-11-15T04:51:16.610Z,5.73
2022-11-15T04:56:17.738Z,5.72
2022-11-15T05:01:18.912Z,5.70
2022-11-15T05:06:20.122Z,5.69
2022-11-15T05:11:21.524Z,5.61
2022-11-15T05:16:23.333Z,5.58
2022-11-15T05:21:24.303Z,5.60
2022-11-15T05:26:25.760Z,5.62
2022-11-15T05:31:27.491Z,5.63
2022-11-15T05:36:35.016Z,5.63
2022-11-15T05:41:44.385Z,5.60
2022-11-15T05:46:47.149Z,5.62
2022-11-15T05:51:48.737Z,5.65
2022-11-15T05:56:51.031Z,5.64
2022-11-15T06:01:52.269Z,5.62
2022-11-15T06:06:53.470Z,5.63
2022-11-15T06:11:54.684Z,5.64
2022-11-15T06:16:55.797Z,5.63
2022-11-15T06:21:56.772Z,5.66
2022-11-15T06:26:58.051Z,5.71
2022-11-15T06:32:00.169Z,5.75
2022-11-15T06:37:02.417Z,5.78
2022-11-15T06:42:03.665Z,5.81
2022-11-15T06:47:04.707Z,5.75
2022-11-15T06:52:06.201Z,5.65
2022-11-15T06:57:07.625Z,5.63
2022-11-15T07:02:14.032Z,5.69
2022-11-15T07:07:15.478Z,5.76
2022-11-15T07:12:16.582Z,5.83
2022-11-15T07:17:17.659Z,5.80
2022-11-15T07:22:18.786Z,5.78
2022-11-15T07:27:19.786Z,5.72
2022-11-15T07:32:21.115Z,5.66
2022-11-15T07:37:22.679Z,5.62
2022-11-15T07:42:41.738Z,5.61
2022-11-15T07:47:46.403Z,5.61
2022-11-15T07:52:47.526Z,5.63
2022-11-15T07:57:48.670Z,5.76
2022-11-15T08:02:50.038Z,5.91
2022-11-15T08:07:54.921Z,6.00
2022-11-15T08:13:15.159Z,6.09
2022-11-15T08:18:17.198Z,6.15
2022-11-15T08:23:18.382Z,6.19
2022-11-15T08:28:19.515Z,6.22
2022-11-15T08:33:20.571Z,6.22
2022-11-15T08:38:21.741Z,6.19
2022-11-15T08:43:23.049Z,6.20
2022-11-15T08:48:24.147Z,6.22
2022-11-15T08:53:25.824Z,6.24
2022-11-15T08:58:27.425Z,6.30
2022-11-15T09:03:28.629Z,6.39
2022-11-15T09:08:48.185Z,6.45
2022-11-15T09:13:50.050Z,6.51
2022-11-15T09:18:51.281Z,6.49
2022-11-15T09:23:53.220Z,6.44
2022-11-15T09:28:54.360Z,6.46
2022-11-15T09:33:55.830Z,6.52
2022-11-15T09:38:58.521Z,6.57
2022-11-15T09:44:37.739Z,6.61
2022-11-15T09:49:38.975Z,6.63
2022-11-15T09:54:53.202Z,6.72
2022-11-15T10:00:38.701Z,6.74
2022-11-15T10:05:32.219Z,6.76
2022-11-15T10:10:40.784Z,6.77
2022-11-15T10:15:45.813Z,6.78
2022-11-15T10:20:51.154Z,6.79
2022-11-15T10:25:55.261Z,6.77
2022-11-15T10:30:59.406Z,6.77
2022-11-15T10:36:21.082Z,6.77
2022-11-15T10:41:28.252Z,6.76
2022-11-15T10:46:46.011Z,6.75
2022-11-15T10:51:49.862Z,6.77
2022-11-15T10:56:54.041Z,6.80
2022-11-15T11:01:55.853Z,6.80
2022-11-15T11:06:59.995Z,6.86
2022-11-15T11:12:03.003Z,6.90
2022-11-15T11:17:31.023Z,6.86
2022-11-15T11:22:48.371Z,6.80
2022-11-15T11:28:11.279Z,6.77
2022-11-15T11:33:16.800Z,6.81
2022-11-15T11:38:49.989Z,6.89
2022-11-15T11:44:18.113Z,6.96
2022-11-15T11:49:27.152Z,7.01
2022-11-15T11:54:50.224Z,7.02
2022-11-15T12:00:31.361Z,6.99
2022-11-15T12:05:37.906Z,6.94
2022-11-15T12:10:40.471Z,6.88
2022-11-15T12:15:51.497Z,6.82
2022-11-15T12:20:58.980Z,6.70
2022-11-15T12:26:17.549Z,6.62
2022-11-15T12:31:41.364Z,6.60
2022-11-15T12:36:46.520Z,6.62
2022-11-15T12:42:06.292Z,6.66
2022-11-15T12:47:07.403Z,6.70
2022-11-15T12:52:09.559Z,6.66
2022-11-15T12:57:16.797Z,6.63
2022-11-15T13:02:26.804Z,6.59
2022-11-15T13:07:46.669Z,6.53
2022-11-15T13:12:47.810Z,6.47
2022-11-15T13:17:51.577Z,6.41
2022-11-15T13:23:13.080Z,6.43
2022-11-15T13:28:14.404Z,6.42
2022-11-15T13:33:37.043Z,6.42
2022-11-15T13:38:40.056Z,6.44
2022-11-15T13:43:41.187Z,6.45
2022-11-15T13:48:43.483Z,6.44
2022-11-15T13:53:49.048Z,6.41
2022-11-15T13:58:50.305Z,6.32
2022-11-15T14:04:01.569Z,6.20
2022-11-15T14:09:14.968Z,6.08
2022-11-15T14:14:16.211Z,6.03
2022-11-15T14:19:20.165Z,6.06
2022-11-15T14:24:22.028Z,6.09
2022-11-15T14:29:25.551Z,6.11
2022-11-15T14:34:27.806Z,6.12
2022-11-15T14:39:29.149Z,6.17
2022-11-15T14:44:30.355Z,6.20
2022-11-15T14:49:31.383Z,6.18
2022-11-15T14:54:32.457Z,6.15
2022-11-15T14:59:33.481Z,6.11
2022-11-15T15:04:34.701Z,6.11
2022-11-15T15:09:36.147Z,6.12
2022-11-15T15:14:38.275Z,6.13
2022-11-15T15:19:39.695Z,6.13
2022-11-15T15:24:41.839Z,6.12
2022-11-15T15:29:43.394Z,6.11
2022-11-15T15:34:44.763Z,6.11
2022-11-15T15:39:45.908Z,6.12
2022-11-15T15:44:50.013Z,6.16
2022-11-15T15:49:51.753Z,6.21
2022-11-15T15:54:52.940Z,6.23
2022-11-15T15:59:54.057Z,6.17
2022-11-15T16:04:55.233Z,6.11
2022-11-15T16:10:02.659Z,6.04
2022-11-15T16:15:04.460Z,6.00
2022-11-15T16:20:05.825Z,6.03
2022-11-15T16:25:07.686Z,6.08
2022-11-15T16:30:14.850Z,6.14
2022-11-15T16:35:17.042Z,6.17
2022-11-15T16:40:23.664Z,6.14
2022-11-15T16:45:25.108Z,6.09
2022-11-15T16:50:34.584Z,6.06
2022-11-15T16:55:35.747Z,6.07
2022-11-15T17:00:36.975Z,6.11
2022-11-15T17:05:38.332Z,6.13
2022-11-15T17:10:43.525Z,6.12
2022-11-15T17:15:45.307Z,6.09
2022-11-15T17:20:46.416Z,6.03
2022-11-15T17:25:47.411Z,5.97
2022-11-15T17:30:48.534Z,5.92
2022-11-15T17:36:00.146Z,5.88
2022-11-15T17:41:08.622Z,5.86
2022-11-15T17:46:16.788Z,5.86
2022-11-15T17:51:18.811Z,5.88
2022-11-15T17:56:22.308Z,5.89
2022-11-15T18:01:26.592Z,5.93
2022-11-15T18:06:30.441Z,5.99
2022-11-15T18:11:40.650Z,6.07
2022-11-15T18:16:42.300Z,6.21
2022-11-15T18:22:02.881Z,6.31
2022-11-15T18:27:05.510Z,6.39
2022-11-15T18:32:11.905Z,6.44
2022-11-15T18:37:14.624Z,6.44
2022-11-15T18:42:15.809Z,6.38
2022-11-15T18:47:16.802Z,6.23
2022-11-15T18:52:17.997Z,6.13
2022-11-15T18:57:19.143Z,6.07
2022-11-15T19:02:20.158Z,6.06
2022-11-15T19:07:21.644Z,6.08
2022-11-15T19:12:22.926Z,6.13
2022-11-15T19:17:24.070Z,6.18
2022-11-15T19:22:25.168Z,6.23
2022-11-15T19:27:26.325Z,6.25
2022-11-15T19:32:27.480Z,6.28
2022-11-15T19:37:28.678Z,6.29
2022-11-15T19:42:29.697Z,6.34
2022-11-15T19:47:31.113Z,6.39
2022-11-15T19:52:32.128Z,6.42
2022-11-15T19:57:33.356Z,6.38
2022-11-15T20:02:34.549Z,6.29
2022-11-15T20:07:35.728Z,6.24
2022-11-15T20:12:38.320Z,6.29
2022-11-15T20:17:39.454Z,6.33
2022-11-15T20:22:40.451Z,6.36
2022-11-15T20:27:41.689Z,6.39
2022-11-15T20:32:42.818Z,6.42
2022-11-15T20:37:44.762Z,6.45
2022-11-15T20:42:46.178Z,6.47
2022-11-15T20:47:47.273Z,6.44
2022-11-15T20:52:48.276Z,6.41
2022-11-15T20:57:50.179Z,6.42
2022-11-15T21:02:52.561Z,6.42
2022-11-15T21:07:53.855Z,6.42
2022-11-15T21:12:54.973Z,6.47
2022-11-15T21:17:56.123Z,6.54
2022-11-15T21:22:57.102Z,6.59
2022-11-15T21:27:58.437Z,6.61
2022-11-15T21:32:59.548Z,6.57
2022-11-15T21:38:00.691Z,6.50
2022-11-15T21:43:01.653Z,6.46
2022-11-15T21:48:03.500Z,6.42
2022-11-15T21:53:04.985Z,6.35
2022-11-15T21:58:06.003Z,6.33
2022-11-15T22:03:07.290Z,6.30
2022-11-15T22:08:08.508Z,6.26
2022-11-15T22:13:09.734Z,6.24
2022-11-15T22:18:12.150Z,6.26
2022-11-15T22:23:13.357Z,6.28
2022-11-15T22:28:15.301Z,6.28
2022-11-15T22:33:18.344Z,6.28
2022-11-15T22:38:19.609Z,6.26
2022-11-15T22:43:23.674Z,6.25
2022-11-15T22:48:37.301Z,6.24
2022-11-15T22:53:38.990Z,6.28
2022-11-15T22:58:40.284Z,6.32
2022-11-15T23:03:41.562Z,6.30
2022-11-15T23:08:42.966Z,6.24
2022-11-15T23:13:44.270Z,6.17
2022-11-15T23:18:45.504Z,6.15
2022-11-15T23:23:47.072Z,6.17
2022-11-15T23:28:48.144Z,6.19
2022-11-15T23:34:08.117Z,6.22
2022-11-15T23:39:10.597Z,6.26
2022-11-15T23:44:11.830Z,6.29
2022-11-15T23:49:13.111Z,6.33
2022-11-15T23:54:15.246Z,6.35
2022-11-15T23:59:16.589Z,6.36
